DON33 EGNX-EGNX
Flight info
| Callsign | DON33 |
|---|---|
| Flight time | 0h 4m |
| Altitude | |
| Route | CIRCUITS |
| Aircraft | C152 |
Departure
| Time | 2026-04-28 18:14 |
|---|---|
| Airport | East Midlands Airport (EGNX) |
Arrival
| Time | 2026-04-28 18:18 |
|---|---|
| Airport | East Midlands Airport (EGNX) |
| Time | Latitude | Longitude | Altitude | Speed | Heading |
|---|---|---|---|---|---|
| 2026-04-28 18:09 | 52.82672 | -1.33912 | 295 ft | 0 kts | 59° |
| 2026-04-28 18:11 | 52.82680 | -1.33894 | 296 ft | 8 kts | 52° |
| 2026-04-28 18:12 | 52.82740 | -1.33761 | 296 ft | 10 kts | 61° |
| 2026-04-28 18:12 | 52.82752 | -1.33727 | 295 ft | 7 kts | 64° |
| 2026-04-28 18:12 | 52.82793 | -1.33704 | 295 ft | 2 kts | 348° |
| 2026-04-28 18:12 | 52.82886 | -1.33725 | 295 ft | 18 kts | 2° |
| 2026-04-28 18:13 | 52.83003 | -1.33730 | 300 ft | 17 kts | 359° |
| 2026-04-28 18:13 | 52.83083 | -1.33694 | 302 ft | 14 kts | 84° |
| 2026-04-28 18:13 | 52.83095 | -1.33138 | 318 ft | 75 kts | 89° |
| 2026-04-28 18:13 | 52.83111 | -1.32322 | 655 ft | 68 kts | 88° |
| 2026-04-28 18:14 | 52.83138 | -1.31503 | 918 ft | 72 kts | 86° |
| 2026-04-28 18:14 | 52.83197 | -1.30667 | 1200 ft | 74 kts | 81° |
| 2026-04-28 18:14 | 52.83336 | -1.29752 | 1307 ft | 86 kts | 51° |
| 2026-04-28 18:14 | 52.83703 | -1.29519 | 1399 ft | 88 kts | 4° |
| 2026-04-28 18:15 | 52.84542 | -1.29438 | 1549 ft | 92 kts | 359° |
| 2026-04-28 18:15 | 52.84964 | -1.29493 | 1630 ft | 91 kts | 335° |
| 2026-04-28 18:15 | 52.85287 | -1.30366 | 1686 ft | 92 kts | 273° |
| 2026-04-28 18:15 | 52.85319 | -1.31413 | 1745 ft | 95 kts | 270° |
| 2026-04-28 18:16 | 52.85334 | -1.32509 | 1802 ft | 95 kts | 269° |
| 2026-04-28 18:16 | 52.85327 | -1.33630 | 1756 ft | 98 kts | 268° |
| 2026-04-28 18:16 | 52.85308 | -1.34739 | 1751 ft | 96 kts | 266° |
| 2026-04-28 18:16 | 52.85282 | -1.35866 | 1698 ft | 100 kts | 267° |
| 2026-04-28 18:17 | 52.85026 | -1.36828 | 1631 ft | 96 kts | 210° |
| 2026-04-28 18:17 | 52.84365 | -1.36957 | 1379 ft | 94 kts | 180° |
| 2026-04-28 18:17 | 52.83749 | -1.36867 | 1189 ft | 84 kts | 163° |
| 2026-04-28 18:17 | 52.83263 | -1.36380 | 932 ft | 83 kts | 133° |
| 2026-04-28 18:18 | 52.83051 | -1.35487 | 535 ft | 86 kts | 93° |
| 2026-04-28 18:18 | 52.83070 | -1.34577 | 319 ft | 63 kts | 89° |
| 2026-04-28 18:18 | 52.83079 | -1.33953 | 298 ft | 45 kts | 89° |
| 2026-04-28 18:18 | 52.83088 | -1.33494 | 321 ft | 74 kts | 88° |
| 2026-04-28 18:19 | 52.83138 | -1.32416 | 748 ft | 69 kts | 85° |
| 2026-04-28 18:19 | 52.83188 | -1.31620 | 1027 ft | 71 kts | 84° |
| 2026-04-28 18:19 | 52.83248 | -1.30805 | 1276 ft | 75 kts | 85° |
| 2026-04-28 18:19 | 52.83306 | -1.29961 | 1568 ft | 73 kts | 83° |
| 2026-04-28 18:20 | 52.83425 | -1.29032 | 1699 ft | 85 kts | 53° |
| 2026-04-28 18:20 | 52.83983 | -1.28877 | 1736 ft | 93 kts | 326° |
| 2026-04-28 18:20 | 52.84458 | -1.29571 | 1819 ft | 91 kts | 316° |
| 2026-04-28 18:20 | 52.84915 | -1.30301 | 1867 ft | 90 kts | 312° |
| 2026-04-28 18:21 | 52.85323 | -1.31059 | 1959 ft | 87 kts | 306° |
| 2026-04-28 18:21 | 52.85690 | -1.31886 | 1986 ft | 91 kts | 301° |
| 2026-04-28 18:21 | 52.85939 | -1.32832 | 2018 ft | 86 kts | 268° |
| 2026-04-28 18:21 | 52.85936 | -1.33818 | 2093 ft | 86 kts | 267° |
| 2026-04-28 18:22 | 52.85916 | -1.34807 | 2079 ft | 86 kts | 278° |
| 2026-04-28 18:22 | 52.85927 | -1.35751 | 2105 ft | 85 kts | 282° |
| 2026-04-28 18:22 | 52.85683 | -1.36745 | 2071 ft | 111 kts | 221° |
| 2026-04-28 18:22 | 52.84952 | -1.37040 | 1829 ft | 106 kts | 182° |
| 2026-04-28 18:23 | 52.84240 | -1.37114 | 1505 ft | 97 kts | 179° |
| 2026-04-28 18:23 | 52.83568 | -1.37093 | 1263 ft | 90 kts | 158° |
| 2026-04-28 18:23 | 52.83156 | -1.36441 | 964 ft | 77 kts | 101° |
| 2026-04-28 18:23 | 52.83043 | -1.35661 | 216 ft | 57 kts | 81° |
| 2026-04-28 18:24 | 52.83058 | -1.35053 | 33 ft | 52 kts | 78° |
| 2026-04-28 18:24 | 52.83072 | -1.34637 | 336 ft | 57 kts | 84° |
| 2026-04-28 18:24 | 52.83076 | -1.33941 | -76 ft | 29 kts | 80° |
| 2026-04-28 18:24 | 52.83084 | -1.33665 | 302 ft | 28 kts | 86° |
| 2026-04-28 18:25 | 52.83090 | -1.33050 | 311 ft | 76 kts | 83° |
| 2026-04-28 18:25 | 52.83056 | -1.32687 | 404 ft | 64 kts | 86° |